createdAt,value
2022-11-30T04:36:20.062Z,86.19
2022-11-30T04:39:23.165Z,86.19
2022-11-30T04:42:25.464Z,86.40
2022-11-30T04:45:32.486Z,86.35
2022-11-30T04:48:37.846Z,85.77
2022-11-30T04:51:40.484Z,85.62
2022-11-30T04:54:42.761Z,85.52
2022-11-30T04:57:48.087Z,84.71
2022-11-30T05:00:53.402Z,85.60
2022-11-30T05:03:59.783Z,84.42
2022-11-30T05:07:03.394Z,84.66
2022-11-30T05:10:07.711Z,83.80
2022-11-30T05:13:10.299Z,83.66
2022-11-30T05:16:13.129Z,83.77
2022-11-30T05:19:16.247Z,83.45
2022-11-30T05:22:18.997Z,83.40
2022-11-30T05:25:21.432Z,83.27
2022-11-30T05:28:24.402Z,83.15
2022-11-30T05:31:26.947Z,82.70
2022-11-30T05:34:29.641Z,82.64
2022-11-30T05:37:32.065Z,83.85
2022-11-30T05:40:35.258Z,82.46
2022-11-30T05:43:37.769Z,82.11
2022-11-30T05:46:41.212Z,82.53
2022-11-30T05:49:43.964Z,81.17
2022-11-30T05:52:46.449Z,80.72
2022-11-30T05:55:48.773Z,80.50
2022-11-30T05:58:51.436Z,80.83
2022-11-30T06:01:54.772Z,80.37
2022-11-30T06:04:57.589Z,80.92
2022-11-30T06:08:00.925Z,79.72
2022-11-30T06:11:04.293Z,79.89
2022-11-30T06:14:06.868Z,77.63
2022-11-30T06:17:09.547Z,78.24
2022-11-30T06:20:12.369Z,77.88
2022-11-30T06:23:14.965Z,78.42
2022-11-30T06:26:17.357Z,77.35
2022-11-30T06:29:20.609Z,76.98
2022-11-30T06:32:22.902Z,76.88
2022-11-30T06:35:28.648Z,76.71
2022-11-30T06:38:31.144Z,76.36
2022-11-30T06:41:33.838Z,77.33
2022-11-30T06:44:36.154Z,76.18
2022-11-30T06:47:38.853Z,75.88
2022-11-30T06:50:45.504Z,75.31
2022-11-30T06:53:51.211Z,75.20
2022-11-30T06:56:53.462Z,75.29
2022-11-30T06:59:56.904Z,74.18
2022-11-30T07:02:59.248Z,73.04
2022-11-30T07:06:07.114Z,73.15
2022-11-30T07:09:10.436Z,72.75
2022-11-30T07:12:13.054Z,72.78
2022-11-30T07:15:15.799Z,72.19
2022-11-30T07:18:18.799Z,72.23
2022-11-30T07:21:21.127Z,71.51
2022-11-30T07:24:42.561Z,71.87
2022-11-30T07:27:44.823Z,72.28
2022-11-30T07:30:48.886Z,71.72
2022-11-30T07:33:52.146Z,72.20
2022-11-30T07:36:54.808Z,70.32
2022-11-30T07:39:57.294Z,70.61
2022-11-30T07:42:59.840Z,70.60
2022-11-30T07:46:03.202Z,69.04
2022-11-30T07:49:07.458Z,68.65
2022-11-30T07:52:09.756Z,68.56
2022-11-30T07:55:12.266Z,68.04
2022-11-30T07:58:17.440Z,67.51
2022-11-30T08:01:22.724Z,68.00
2022-11-30T08:04:25.433Z,67.58
2022-11-30T08:07:28.093Z,67.30
2022-11-30T08:10:31.113Z,67.88
2022-11-30T08:13:33.439Z,67.78
2022-11-30T08:16:38.188Z,67.07
2022-11-30T08:19:40.636Z,67.82
2022-11-30T08:22:43.207Z,66.99
2022-11-30T08:25:45.523Z,66.49
2022-11-30T08:28:50.091Z,65.54
2022-11-30T08:31:52.524Z,65.74
2022-11-30T08:34:55.237Z,65.50
2022-11-30T08:37:57.567Z,65.16
2022-11-30T08:41:00.613Z,64.38
2022-11-30T08:44:03.163Z,63.25
2022-11-30T08:47:07.274Z,63.13
2022-11-30T08:50:10.392Z,62.92
2022-11-30T08:53:13.011Z,63.17
2022-11-30T08:56:20.845Z,63.08
2022-11-30T08:59:23.456Z,63.39
2022-11-30T09:02:26.694Z,62.43
2022-11-30T09:05:29.377Z,62.46
2022-11-30T09:08:32.387Z,62.09
2022-11-30T09:11:35.792Z,61.99
2022-11-30T09:14:38.161Z,63.30
2022-11-30T09:17:41.017Z,62.47
2022-11-30T09:20:43.413Z,62.15
2022-11-30T09:23:46.501Z,62.01
2022-11-30T09:26:48.870Z,61.52
2022-11-30T09:29:51.653Z,60.44
2022-11-30T09:32:53.996Z,60.70
2022-11-30T09:36:01.797Z,60.25
2022-11-30T09:39:04.154Z,60.53
2022-11-30T09:42:22.141Z,60.48
2022-11-30T09:45:30.289Z,60.16
2022-11-30T09:48:40.356Z,60.32
2022-11-30T09:51:47.514Z,60.33
2022-11-30T09:54:50.724Z,60.29
2022-11-30T09:57:56.661Z,59.22
2022-11-30T10:01:05.056Z,59.21
2022-11-30T10:04:24.725Z,59.16
2022-11-30T10:07:32.990Z,59.02
2022-11-30T10:10:53.815Z,59.09
2022-11-30T10:14:16.149Z,59.14
2022-11-30T10:17:34.202Z,59.76
2022-11-30T10:21:13.174Z,59.58
2022-11-30T10:24:41.582Z,58.31
2022-11-30T10:27:51.295Z,57.57
2022-11-30T10:31:01.814Z,58.19
2022-11-30T10:34:21.270Z,58.19
2022-11-30T10:37:39.581Z,58.57
2022-11-30T10:40:52.872Z,58.45
2022-11-30T10:44:02.614Z,58.78
2022-11-30T10:47:22.327Z,58.58
2022-11-30T10:50:29.167Z,58.40
2022-11-30T10:53:37.211Z,58.74
2022-11-30T10:56:39.788Z,58.68
2022-11-30T10:59:52.694Z,57.68
2022-11-30T11:02:55.603Z,57.72
2022-11-30T11:06:11.169Z,57.39
2022-11-30T11:09:38.536Z,58.15
2022-11-30T11:12:49.845Z,57.20
2022-11-30T11:16:00.294Z,57.67
2022-11-30T11:19:02.724Z,57.99
2022-11-30T11:22:20.826Z,57.79
2022-11-30T11:25:37.748Z,56.86
2022-11-30T11:28:45.461Z,57.56
2022-11-30T11:31:48.681Z,56.64
2022-11-30T11:34:51.664Z,57.53
2022-11-30T11:37:53.973Z,57.02
2022-11-30T11:41:02.467Z,56.30
2022-11-30T11:44:08.317Z,56.81
2022-11-30T11:47:23.837Z,56.27
2022-11-30T11:54:01.791Z,55.97
2022-11-30T11:57:13.282Z,55.99
2022-11-30T12:00:18.502Z,55.69
2022-11-30T12:03:40.016Z,56.63
2022-11-30T12:06:45.243Z,55.41
2022-11-30T12:10:49.490Z,55.30
2022-11-30T12:13:42.022Z,55.71
2022-11-30T12:17:02.814Z,56.00
2022-11-30T12:20:14.082Z,56.34
2022-11-30T12:23:46.083Z,56.79
2022-11-30T12:26:58.410Z,56.80
2022-11-30T12:30:12.227Z,58.04
2022-11-30T12:33:17.413Z,56.99
2022-11-30T12:36:25.554Z,57.45
2022-11-30T12:39:40.167Z,58.17
2022-11-30T12:43:25.428Z,56.78
2022-11-30T12:46:27.628Z,56.06
2022-11-30T12:49:57.645Z,54.83
2022-11-30T12:53:18.255Z,54.17
2022-11-30T12:56:41.311Z,54.58
2022-11-30T13:00:02.525Z,54.80
2022-11-30T13:03:41.852Z,54.03
2022-11-30T13:06:49.019Z,54.41
2022-11-30T13:10:04.163Z,54.32
2022-11-30T13:13:13.682Z,55.00
2022-11-30T13:16:18.348Z,55.42
2022-11-30T13:19:28.564Z,54.28
2022-11-30T13:22:46.810Z,54.55
2022-11-30T13:26:08.605Z,55.39
2022-11-30T13:29:25.427Z,55.42
2022-11-30T13:32:57.541Z,55.80
2022-11-30T13:35:55.062Z,55.55
2022-11-30T13:39:20.132Z,55.57
2022-11-30T13:42:50.091Z,55.55
2022-11-30T13:46:19.189Z,54.99
2022-11-30T13:49:27.862Z,55.52
2022-11-30T13:52:58.527Z,55.43
2022-11-30T13:56:04.079Z,55.18
2022-11-30T13:59:24.538Z,55.66
2022-11-30T14:02:33.345Z,56.00
2022-11-30T14:05:38.505Z,55.58
2022-11-30T14:08:40.849Z,56.41
2022-11-30T14:11:46.554Z,56.25
2022-11-30T14:14:49.037Z,55.70
2022-11-30T14:17:56.944Z,55.62
2022-11-30T14:21:19.970Z,56.61
2022-11-30T14:24:23.987Z,56.25
2022-11-30T14:27:29.544Z,56.30
2022-11-30T14:30:34.126Z,55.94
2022-11-30T14:33:44.238Z,56.02
2022-11-30T14:36:53.621Z,55.96
2022-11-30T14:39:56.656Z,56.30
2022-11-30T14:43:01.653Z,56.51
2022-11-30T14:46:09.192Z,55.54
2022-11-30T14:49:22.793Z,55.79
2022-11-30T14:52:53.100Z,55.26
2022-11-30T14:56:02.515Z,55.99
2022-11-30T14:59:37.249Z,55.10
2022-11-30T15:02:43.020Z,55.83
2022-11-30T15:05:45.550Z,55.38
2022-11-30T15:08:54.421Z,55.34
2022-11-30T15:11:58.052Z,55.63
2022-11-30T15:15:22.729Z,54.73
2022-11-30T15:18:26.150Z,55.01
2022-11-30T15:21:29.715Z,54.68
2022-11-30T15:24:31.894Z,55.69
2022-11-30T15:27:34.588Z,54.60
2022-11-30T15:30:40.539Z,54.53
2022-11-30T15:33:45.962Z,54.31
2022-11-30T15:36:48.640Z,53.50
2022-11-30T15:39:56.943Z,53.79
2022-11-30T15:43:00.637Z,54.34
2022-11-30T15:46:03.776Z,53.63
2022-11-30T15:49:12.501Z,53.08
2022-11-30T15:52:17.448Z,53.13
2022-11-30T15:55:46.877Z,51.93
2022-11-30T15:59:05.040Z,52.87
2022-11-30T16:02:25.323Z,52.58
2022-11-30T16:05:28.002Z,52.02
2022-11-30T16:08:30.835Z,52.74
2022-11-30T16:11:34.857Z,54.02
2022-11-30T16:14:37.174Z,53.39
2022-11-30T16:17:39.682Z,53.26
2022-11-30T16:20:43.376Z,54.31
2022-11-30T16:23:47.098Z,53.88
2022-11-30T16:26:51.924Z,54.45
2022-11-30T16:29:55.311Z,54.49
2022-11-30T16:32:57.741Z,54.76
2022-11-30T16:36:08.127Z,55.18
2022-11-30T16:39:12.441Z,55.54
2022-11-30T16:42:15.151Z,56.88
2022-11-30T16:45:23.659Z,57.42
2022-11-30T16:48:26.353Z,58.43
